Lake Suzy, Florida
Current Conditions -  °F | °C
As of 8:53 AM on Thursday 23 Oct 2014 (Local Time) from KPGD Reporting Station
Overcast Overcast  
Wind Chill: 70°   Ceiling: 4000
Heat Index: 70°   Visibility: 10mi
Dew Point: 61°   Wind: 10mph
Humidity: 73%   Direction: 50°NE
Pressure: 29.98"   Gusts: NA
Location:  27.0717°N, 81.9802°W
Report Text: KPGD 231253Z 05009KT 10SM OVC040 21/16 A2998 RMK AO2 SLP152 T02110161
Loading
Personal Weather Stations






























Interactive Weather Map New forecast layout! Learn more

10-Day Weather Forecast

Advertisements
Track Severe Weather on mobile